sensor_id;sensor_type;location;lat;lon;timestamp;P1;durP1;ratioP1;P2;durP2;ratioP2
24685;SDS011;12804;51.176;4.452;2023-05-07T00:00:27;12.45;;;9.60;;
24685;SDS011;12804;51.176;4.452;2023-05-07T00:02:53;11.93;;;10.15;;
24685;SDS011;12804;51.176;4.452;2023-05-07T00:05:19;11.43;;;10.23;;
24685;SDS011;12804;51.176;4.452;2023-05-07T00:07:46;10.95;;;9.43;;
24685;SDS011;12804;51.176;4.452;2023-05-07T00:10:12;11.13;;;10.02;;
24685;SDS011;12804;51.176;4.452;2023-05-07T00:12:38;15.80;;;11.35;;
24685;SDS011;12804;51.176;4.452;2023-05-07T00:15:04;13.85;;;11.50;;
24685;SDS011;12804;51.176;4.452;2023-05-07T00:17:32;11.40;;;10.20;;
24685;SDS011;12804;51.176;4.452;2023-05-07T00:19:58;11.68;;;10.35;;
24685;SDS011;12804;51.176;4.452;2023-05-07T00:22:24;12.50;;;11.20;;
24685;SDS011;12804;51.176;4.452;2023-05-07T00:24:49;14.05;;;10.90;;
24685;SDS011;12804;51.176;4.452;2023-05-07T00:27:15;12.57;;;11.05;;
24685;SDS011;12804;51.176;4.452;2023-05-07T00:29:41;14.95;;;11.25;;
24685;SDS011;12804;51.176;4.452;2023-05-07T00:32:07;13.43;;;10.80;;
24685;SDS011;12804;51.176;4.452;2023-05-07T00:34:33;12.77;;;10.40;;
24685;SDS011;12804;51.176;4.452;2023-05-07T00:37:01;12.40;;;11.10;;
24685;SDS011;12804;51.176;4.452;2023-05-07T00:39:27;11.18;;;9.93;;
24685;SDS011;12804;51.176;4.452;2023-05-07T00:41:52;12.70;;;11.07;;
24685;SDS011;12804;51.176;4.452;2023-05-07T00:44:18;13.05;;;11.50;;
24685;SDS011;12804;51.176;4.452;2023-05-07T00:46:44;14.10;;;11.35;;
24685;SDS011;12804;51.176;4.452;2023-05-07T00:49:10;12.43;;;10.63;;
24685;SDS011;12804;51.176;4.452;2023-05-07T00:51:36;12.15;;;10.95;;
24685;SDS011;12804;51.176;4.452;2023-05-07T00:54:02;12.57;;;11.30;;
24685;SDS011;12804;51.176;4.452;2023-05-07T00:56:28;15.05;;;11.70;;
24685;SDS011;12804;51.176;4.452;2023-05-07T00:58:55;12.65;;;11.13;;
24685;SDS011;12804;51.176;4.452;2023-05-07T01:01:21;12.50;;;10.80;;
24685;SDS011;12804;51.176;4.452;2023-05-07T01:03:46;12.30;;;10.77;;
24685;SDS011;12804;51.176;4.452;2023-05-07T01:06:12;14.63;;;11.52;;
24685;SDS011;12804;51.176;4.452;2023-05-07T01:08:41;13.25;;;11.85;;
24685;SDS011;12804;51.176;4.452;2023-05-07T01:11:08;13.23;;;11.93;;
24685;SDS011;12804;51.176;4.452;2023-05-07T01:13:35;13.13;;;11.50;;
24685;SDS011;12804;51.176;4.452;2023-05-07T01:16:02;13.75;;;12.02;;
24685;SDS011;12804;51.176;4.452;2023-05-07T01:18:29;14.10;;;12.45;;
24685;SDS011;12804;51.176;4.452;2023-05-07T01:20:58;13.88;;;11.02;;
24685;SDS011;12804;51.176;4.452;2023-05-07T01:23:25;12.88;;;11.68;;
24685;SDS011;12804;51.176;4.452;2023-05-07T01:25:53;15.13;;;12.70;;
24685;SDS011;12804;51.176;4.452;2023-05-07T01:28:21;14.15;;;12.63;;
24685;SDS011;12804;51.176;4.452;2023-05-07T01:30:50;14.35;;;12.85;;
24685;SDS011;12804;51.176;4.452;2023-05-07T01:33:23;14.18;;;12.02;;
24685;SDS011;12804;51.176;4.452;2023-05-07T01:35:51;13.50;;;11.95;;
24685;SDS011;12804;51.176;4.452;2023-05-07T01:38:19;14.00;;;12.60;;
24685;SDS011;12804;51.176;4.452;2023-05-07T01:40:47;12.77;;;11.50;;
24685;SDS011;12804;51.176;4.452;2023-05-07T01:43:13;13.93;;;12.50;;
24685;SDS011;12804;51.176;4.452;2023-05-07T01:45:39;14.68;;;12.07;;
24685;SDS011;12804;51.176;4.452;2023-05-07T01:48:06;14.35;;;12.60;;
24685;SDS011;12804;51.176;4.452;2023-05-07T01:50:33;14.02;;;12.52;;
24685;SDS011;12804;51.176;4.452;2023-05-07T01:52:59;13.57;;;12.15;;
24685;SDS011;12804;51.176;4.452;2023-05-07T01:55:27;14.60;;;13.18;;
24685;SDS011;12804;51.176;4.452;2023-05-07T01:57:53;13.15;;;11.85;;
24685;SDS011;12804;51.176;4.452;2023-05-07T02:00:19;14.70;;;13.23;;
24685;SDS011;12804;51.176;4.452;2023-05-07T02:02:45;15.02;;;13.02;;
24685;SDS011;12804;51.176;4.452;2023-05-07T02:05:23;15.35;;;13.77;;
24685;SDS011;12804;51.176;4.452;2023-05-07T02:07:57;14.73;;;13.32;;
24685;SDS011;12804;51.176;4.452;2023-05-07T02:10:23;14.93;;;13.13;;
24685;SDS011;12804;51.176;4.452;2023-05-07T02:12:49;16.00;;;14.25;;
24685;SDS011;12804;51.176;4.452;2023-05-07T02:15:15;14.05;;;12.73;;
24685;SDS011;12804;51.176;4.452;2023-05-07T02:20:28;14.43;;;12.93;;
24685;SDS011;12804;51.176;4.452;2023-05-07T02:22:54;14.55;;;13.15;;
24685;SDS011;12804;51.176;4.452;2023-05-07T02:25:20;14.75;;;13.20;;
24685;SDS011;12804;51.176;4.452;2023-05-07T02:27:46;14.00;;;12.70;;
24685;SDS011;12804;51.176;4.452;2023-05-07T02:30:13;14.30;;;12.57;;
24685;SDS011;12804;51.176;4.452;2023-05-07T02:32:39;14.55;;;12.57;;
24685;SDS011;12804;51.176;4.452;2023-05-07T02:35:05;13.20;;;11.80;;
24685;SDS011;12804;51.176;4.452;2023-05-07T02:37:31;14.23;;;12.82;;
24685;SDS011;12804;51.176;4.452;2023-05-07T02:39:57;14.07;;;12.65;;
24685;SDS011;12804;51.176;4.452;2023-05-07T02:42:23;17.23;;;12.98;;
24685;SDS011;12804;51.176;4.452;2023-05-07T02:44:48;14.65;;;13.18;;
24685;SDS011;12804;51.176;4.452;2023-05-07T02:47:14;14.32;;;12.90;;
24685;SDS011;12804;51.176;4.452;2023-05-07T02:49:42;14.07;;;12.77;;
24685;SDS011;12804;51.176;4.452;2023-05-07T02:52:08;14.75;;;12.82;;
24685;SDS011;12804;51.176;4.452;2023-05-07T02:54:34;13.55;;;12.25;;
24685;SDS011;12804;51.176;4.452;2023-05-07T02:57:00;13.82;;;12.52;;
24685;SDS011;12804;51.176;4.452;2023-05-07T02:59:27;14.27;;;12.82;;
24685;SDS011;12804;51.176;4.452;2023-05-07T03:01:53;14.38;;;12.98;;
24685;SDS011;12804;51.176;4.452;2023-05-07T03:04:19;14.25;;;12.68;;
24685;SDS011;12804;51.176;4.452;2023-05-07T03:06:45;13.63;;;12.32;;
24685;SDS011;12804;51.176;4.452;2023-05-07T03:09:11;14.40;;;12.95;;
24685;SDS011;12804;51.176;4.452;2023-05-07T03:11:37;13.63;;;12.32;;
24685;SDS011;12804;51.176;4.452;2023-05-07T03:14:03;12.60;;;11.40;;
24685;SDS011;12804;51.176;4.452;2023-05-07T03:16:29;13.57;;;12.27;;
24685;SDS011;12804;51.176;4.452;2023-05-07T03:18:55;13.00;;;11.63;;
24685;SDS011;12804;51.176;4.452;2023-05-07T03:21:21;14.07;;;11.82;;
24685;SDS011;12804;51.176;4.452;2023-05-07T03:23:47;13.77;;;12.57;;
24685;SDS011;12804;51.176;4.452;2023-05-07T03:26:13;13.77;;;12.32;;
24685;SDS011;12804;51.176;4.452;2023-05-07T03:28:39;14.60;;;12.40;;
24685;SDS011;12804;51.176;4.452;2023-05-07T03:31:09;13.07;;;11.88;;
24685;SDS011;12804;51.176;4.452;2023-05-07T03:33:37;13.43;;;12.05;;
24685;SDS011;12804;51.176;4.452;2023-05-07T03:36:15;13.38;;;12.07;;
24685;SDS011;12804;51.176;4.452;2023-05-07T03:38:41;14.20;;;12.70;;
24685;SDS011;12804;51.176;4.452;2023-05-07T03:41:07;14.27;;;12.98;;
24685;SDS011;12804;51.176;4.452;2023-05-07T03:43:33;13.10;;;11.82;;
24685;SDS011;12804;51.176;4.452;2023-05-07T03:46:04;14.63;;;13.17;;
24685;SDS011;12804;51.176;4.452;2023-05-07T03:48:30;13.90;;;12.55;;
24685;SDS011;12804;51.176;4.452;2023-05-07T03:50:58;13.68;;;12.25;;
24685;SDS011;12804;51.176;4.452;2023-05-07T03:53:27;14.40;;;12.88;;
24685;SDS011;12804;51.176;4.452;2023-05-07T03:55:53;14.45;;;13.05;;
24685;SDS011;12804;51.176;4.452;2023-05-07T03:58:20;13.57;;;12.20;;
24685;SDS011;12804;51.176;4.452;2023-05-07T04:00:46;14.07;;;12.15;;
24685;SDS011;12804;51.176;4.452;2023-05-07T04:03:22;15.85;;;13.13;;
24685;SDS011;12804;51.176;4.452;2023-05-07T04:05:50;15.73;;;14.27;;
24685;SDS011;12804;51.176;4.452;2023-05-07T04:08:16;14.20;;;12.90;;
24685;SDS011;12804;51.176;4.452;2023-05-07T04:10:46;15.25;;;13.75;;
24685;SDS011;12804;51.176;4.452;2023-05-07T04:13:12;14.15;;;12.77;;
24685;SDS011;12804;51.176;4.452;2023-05-07T04:15:38;14.35;;;12.50;;
24685;SDS011;12804;51.176;4.452;2023-05-07T04:18:07;13.80;;;12.50;;
24685;SDS011;12804;51.176;4.452;2023-05-07T04:20:34;14.20;;;12.57;;
24685;SDS011;12804;51.176;4.452;2023-05-07T04:23:03;15.38;;;13.88;;
24685;SDS011;12804;51.176;4.452;2023-05-07T04:25:29;14.70;;;13.35;;
24685;SDS011;12804;51.176;4.452;2023-05-07T04:28:03;14.70;;;13.32;;
24685;SDS011;12804;51.176;4.452;2023-05-07T04:30:29;14.60;;;13.05;;
24685;SDS011;12804;51.176;4.452;2023-05-07T04:32:55;15.20;;;13.65;;
24685;SDS011;12804;51.176;4.452;2023-05-07T04:35:23;14.90;;;13.48;;
24685;SDS011;12804;51.176;4.452;2023-05-07T04:37:49;15.30;;;13.70;;
24685;SDS011;12804;51.176;4.452;2023-05-07T04:40:15;14.88;;;13.38;;
24685;SDS011;12804;51.176;4.452;2023-05-07T04:42:42;15.27;;;13.65;;
24685;SDS011;12804;51.176;4.452;2023-05-07T04:45:08;13.80;;;12.40;;
24685;SDS011;12804;51.176;4.452;2023-05-07T04:47:36;13.60;;;12.40;;
24685;SDS011;12804;51.176;4.452;2023-05-07T04:50:02;14.90;;;13.50;;
24685;SDS011;12804;51.176;4.452;2023-05-07T04:52:28;14.55;;;13.15;;
24685;SDS011;12804;51.176;4.452;2023-05-07T04:54:54;15.23;;;13.63;;
24685;SDS011;12804;51.176;4.452;2023-05-07T04:57:20;13.95;;;12.48;;
24685;SDS011;12804;51.176;4.452;2023-05-07T04:59:46;15.65;;;12.80;;
24685;SDS011;12804;51.176;4.452;2023-05-07T05:02:12;13.20;;;11.75;;
24685;SDS011;12804;51.176;4.452;2023-05-07T05:04:39;13.63;;;12.25;;
24685;SDS011;12804;51.176;4.452;2023-05-07T05:07:05;12.88;;;11.68;;
24685;SDS011;12804;51.176;4.452;2023-05-07T05:09:32;14.13;;;12.65;;
24685;SDS011;12804;51.176;4.452;2023-05-07T05:11:58;13.38;;;12.00;;
24685;SDS011;12804;51.176;4.452;2023-05-07T05:14:24;12.15;;;10.95;;
24685;SDS011;12804;51.176;4.452;2023-05-07T05:16:51;14.20;;;12.77;;
24685;SDS011;12804;51.176;4.452;2023-05-07T05:19:17;13.35;;;12.15;;
24685;SDS011;12804;51.176;4.452;2023-05-07T05:21:43;13.27;;;11.80;;
24685;SDS011;12804;51.176;4.452;2023-05-07T05:24:11;12.95;;;11.60;;
24685;SDS011;12804;51.176;4.452;2023-05-07T05:26:37;12.65;;;11.43;;
24685;SDS011;12804;51.176;4.452;2023-05-07T05:29:04;13.77;;;12.38;;
24685;SDS011;12804;51.176;4.452;2023-05-07T05:31:31;13.40;;;11.98;;
24685;SDS011;12804;51.176;4.452;2023-05-07T05:33:56;13.73;;;12.38;;
24685;SDS011;12804;51.176;4.452;2023-05-07T05:36:23;11.75;;;10.75;;
24685;SDS011;12804;51.176;4.452;2023-05-07T05:38:51;11.90;;;10.80;;
24685;SDS011;12804;51.176;4.452;2023-05-07T05:41:17;11.15;;;10.13;;
24685;SDS011;12804;51.176;4.452;2023-05-07T05:43:43;13.60;;;11.38;;
24685;SDS011;12804;51.176;4.452;2023-05-07T05:46:09;13.25;;;11.85;;
24685;SDS011;12804;51.176;4.452;2023-05-07T05:48:37;13.85;;;12.30;;
24685;SDS011;12804;51.176;4.452;2023-05-07T05:51:03;12.82;;;11.63;;
24685;SDS011;12804;51.176;4.452;2023-05-07T05:53:29;11.65;;;10.50;;
24685;SDS011;12804;51.176;4.452;2023-05-07T05:55:55;14.30;;;12.07;;
24685;SDS011;12804;51.176;4.452;2023-05-07T05:58:21;11.77;;;10.73;;
24685;SDS011;12804;51.176;4.452;2023-05-07T06:00:52;13.88;;;11.32;;
24685;SDS011;12804;51.176;4.452;2023-05-07T06:03:20;11.57;;;10.48;;
24685;SDS011;12804;51.176;4.452;2023-05-07T06:05:46;12.93;;;11.75;;
24685;SDS011;12804;51.176;4.452;2023-05-07T06:08:13;11.30;;;10.25;;
24685;SDS011;12804;51.176;4.452;2023-05-07T06:10:39;13.95;;;11.75;;
24685;SDS011;12804;51.176;4.452;2023-05-07T06:13:07;11.98;;;10.88;;
24685;SDS011;12804;51.176;4.452;2023-05-07T06:15:34;12.40;;;10.90;;
24685;SDS011;12804;51.176;4.452;2023-05-07T06:18:05;11.38;;;10.32;;
24685;SDS011;12804;51.176;4.452;2023-05-07T06:20:31;12.50;;;10.88;;
24685;SDS011;12804;51.176;4.452;2023-05-07T06:22:58;12.15;;;10.73;;
24685;SDS011;12804;51.176;4.452;2023-05-07T06:25:24;11.55;;;10.55;;
24685;SDS011;12804;51.176;4.452;2023-05-07T06:27:50;10.68;;;9.68;;
24685;SDS011;12804;51.176;4.452;2023-05-07T06:30:16;11.52;;;10.52;;
24685;SDS011;12804;51.176;4.452;2023-05-07T06:32:42;13.60;;;10.52;;
24685;SDS011;12804;51.176;4.452;2023-05-07T06:35:09;11.27;;;10.18;;
24685;SDS011;12804;51.176;4.452;2023-05-07T06:37:37;11.52;;;9.82;;
24685;SDS011;12804;51.176;4.452;2023-05-07T06:40:11;10.30;;;9.13;;
24685;SDS011;12804;51.176;4.452;2023-05-07T06:42:38;11.50;;;10.30;;
24685;SDS011;12804;51.176;4.452;2023-05-07T06:45:21;11.70;;;9.60;;
24685;SDS011;12804;51.176;4.452;2023-05-07T06:47:47;10.07;;;9.00;;
24685;SDS011;12804;51.176;4.452;2023-05-07T06:50:13;11.55;;;9.98;;
24685;SDS011;12804;51.176;4.452;2023-05-07T06:52:42;10.77;;;9.68;;
24685;SDS011;12804;51.176;4.452;2023-05-07T06:55:08;10.82;;;9.68;;
24685;SDS011;12804;51.176;4.452;2023-05-07T06:57:34;11.82;;;9.50;;
24685;SDS011;12804;51.176;4.452;2023-05-07T07:00:00;11.25;;;9.88;;
24685;SDS011;12804;51.176;4.452;2023-05-07T07:02:26;11.35;;;10.25;;
24685;SDS011;12804;51.176;4.452;2023-05-07T07:04:51;12.13;;;10.88;;
24685;SDS011;12804;51.176;4.452;2023-05-07T07:07:18;11.93;;;10.73;;
24685;SDS011;12804;51.176;4.452;2023-05-07T07:09:46;12.82;;;11.40;;
24685;SDS011;12804;51.176;4.452;2023-05-07T07:12:15;11.65;;;10.45;;
24685;SDS011;12804;51.176;4.452;2023-05-07T07:14:41;11.50;;;10.30;;
24685;SDS011;12804;51.176;4.452;2023-05-07T07:17:07;12.27;;;11.00;;
24685;SDS011;12804;51.176;4.452;2023-05-07T07:19:33;12.05;;;10.80;;
24685;SDS011;12804;51.176;4.452;2023-05-07T07:22:01;11.63;;;10.25;;
24685;SDS011;12804;51.176;4.452;2023-05-07T07:24:27;11.38;;;10.27;;
24685;SDS011;12804;51.176;4.452;2023-05-07T07:26:57;11.20;;;10.05;;
24685;SDS011;12804;51.176;4.452;2023-05-07T07:29:24;11.80;;;10.57;;
24685;SDS011;12804;51.176;4.452;2023-05-07T07:31:51;11.55;;;10.25;;
24685;SDS011;12804;51.176;4.452;2023-05-07T07:34:19;10.75;;;9.70;;
24685;SDS011;12804;51.176;4.452;2023-05-07T07:36:44;11.20;;;10.10;;
24685;SDS011;12804;51.176;4.452;2023-05-07T07:39:12;12.07;;;10.10;;
24685;SDS011;12804;51.176;4.452;2023-05-07T07:41:38;10.60;;;9.52;;
24685;SDS011;12804;51.176;4.452;2023-05-07T07:44:04;10.93;;;9.75;;
24685;SDS011;12804;51.176;4.452;2023-05-07T07:46:33;10.55;;;9.38;;
24685;SDS011;12804;51.176;4.452;2023-05-07T07:49:00;12.70;;;8.50;;
24685;SDS011;12804;51.176;4.452;2023-05-07T07:51:26;13.90;;;9.95;;
24685;SDS011;12804;51.176;4.452;2023-05-07T07:53:52;9.50;;;8.32;;
24685;SDS011;12804;51.176;4.452;2023-05-07T07:56:18;10.57;;;8.60;;
24685;SDS011;12804;51.176;4.452;2023-05-07T07:58:45;11.68;;;8.48;;
24685;SDS011;12804;51.176;4.452;2023-05-07T08:01:11;10.82;;;8.48;;
24685;SDS011;12804;51.176;4.452;2023-05-07T08:03:38;10.77;;;7.65;;
24685;SDS011;12804;51.176;4.452;2023-05-07T08:06:04;7.63;;;6.80;;
24685;SDS011;12804;51.176;4.452;2023-05-07T08:08:31;8.90;;;7.88;;
24685;SDS011;12804;51.176;4.452;2023-05-07T08:10:57;10.10;;;7.53;;
24685;SDS011;12804;51.176;4.452;2023-05-07T08:13:28;9.30;;;7.00;;
24685;SDS011;12804;51.176;4.452;2023-05-07T08:15:54;8.48;;;6.22;;
24685;SDS011;12804;51.176;4.452;2023-05-07T08:18:21;7.38;;;6.20;;
24685;SDS011;12804;51.176;4.452;2023-05-07T08:20:48;7.93;;;6.28;;
24685;SDS011;12804;51.176;4.452;2023-05-07T08:23:19;8.48;;;6.45;;
24685;SDS011;12804;51.176;4.452;2023-05-07T08:25:45;7.57;;;6.15;;
24685;SDS011;12804;51.176;4.452;2023-05-07T08:28:11;9.25;;;6.35;;
24685;SDS011;12804;51.176;4.452;2023-05-07T08:30:38;10.90;;;6.20;;
24685;SDS011;12804;51.176;4.452;2023-05-07T08:33:08;10.40;;;7.00;;
24685;SDS011;12804;51.176;4.452;2023-05-07T08:35:35;11.13;;;6.53;;
24685;SDS011;12804;51.176;4.452;2023-05-07T08:38:01;10.88;;;6.72;;
24685;SDS011;12804;51.176;4.452;2023-05-07T08:40:27;8.75;;;7.10;;
24685;SDS011;12804;51.176;4.452;2023-05-07T08:42:56;9.57;;;7.03;;
24685;SDS011;12804;51.176;4.452;2023-05-07T08:45:23;9.82;;;7.18;;
24685;SDS011;12804;51.176;4.452;2023-05-07T08:47:52;9.52;;;7.13;;
24685;SDS011;12804;51.176;4.452;2023-05-07T08:50:23;11.88;;;6.85;;
24685;SDS011;12804;51.176;4.452;2023-05-07T08:52:50;9.50;;;7.20;;
24685;SDS011;12804;51.176;4.452;2023-05-07T08:55:17;9.02;;;6.45;;
24685;SDS011;12804;51.176;4.452;2023-05-07T08:57:44;7.93;;;6.53;;
24685;SDS011;12804;51.176;4.452;2023-05-07T09:00:11;8.25;;;5.55;;
24685;SDS011;12804;51.176;4.452;2023-05-07T09:02:39;9.68;;;6.47;;
24685;SDS011;12804;51.176;4.452;2023-05-07T09:05:06;9.27;;;6.35;;
24685;SDS011;12804;51.176;4.452;2023-05-07T09:07:33;14.07;;;6.30;;
24685;SDS011;12804;51.176;4.452;2023-05-07T09:10:04;9.20;;;6.53;;
24685;SDS011;12804;51.176;4.452;2023-05-07T09:12:31;9.43;;;5.88;;
24685;SDS011;12804;51.176;4.452;2023-05-07T09:14:58;8.60;;;5.88;;
24685;SDS011;12804;51.176;4.452;2023-05-07T09:17:26;9.43;;;5.85;;
24685;SDS011;12804;51.176;4.452;2023-05-07T09:19:52;10.05;;;5.80;;
24685;SDS011;12804;51.176;4.452;2023-05-07T09:22:19;8.93;;;5.63;;
24685;SDS011;12804;51.176;4.452;2023-05-07T09:24:55;8.23;;;5.57;;
24685;SDS011;12804;51.176;4.452;2023-05-07T09:27:24;7.95;;;4.85;;
24685;SDS011;12804;51.176;4.452;2023-05-07T09:29:52;11.10;;;5.35;;
24685;SDS011;12804;51.176;4.452;2023-05-07T09:32:17;10.20;;;5.55;;
24685;SDS011;12804;51.176;4.452;2023-05-07T09:34:44;7.68;;;5.10;;
24685;SDS011;12804;51.176;4.452;2023-05-07T09:37:12;9.13;;;5.90;;
24685;SDS011;12804;51.176;4.452;2023-05-07T09:39:39;8.77;;;6.07;;
24685;SDS011;12804;51.176;4.452;2023-05-07T09:42:16;9.13;;;6.07;;
24685;SDS011;12804;51.176;4.452;2023-05-07T09:44:48;9.05;;;5.68;;
24685;SDS011;12804;51.176;4.452;2023-05-07T09:47:19;10.73;;;5.82;;
24685;SDS011;12804;51.176;4.452;2023-05-07T09:49:50;9.30;;;5.40;;
24685;SDS011;12804;51.176;4.452;2023-05-07T09:52:21;8.18;;;5.57;;
24685;SDS011;12804;51.176;4.452;2023-05-07T09:54:52;9.27;;;6.10;;
24685;SDS011;12804;51.176;4.452;2023-05-07T09:57:22;8.00;;;5.47;;
24685;SDS011;12804;51.176;4.452;2023-05-07T09:59:55;7.57;;;5.57;;
24685;SDS011;12804;51.176;4.452;2023-05-07T10:02:25;9.00;;;5.68;;
24685;SDS011;12804;51.176;4.452;2023-05-07T10:04:54;6.88;;;5.78;;
24685;SDS011;12804;51.176;4.452;2023-05-07T10:07:26;7.63;;;5.70;;
24685;SDS011;12804;51.176;4.452;2023-05-07T10:09:59;9.10;;;5.85;;
24685;SDS011;12804;51.176;4.452;2023-05-07T10:12:33;8.23;;;4.90;;
24685;SDS011;12804;51.176;4.452;2023-05-07T10:15:07;9.85;;;5.60;;
24685;SDS011;12804;51.176;4.452;2023-05-07T10:17:39;10.02;;;5.03;;
24685;SDS011;12804;51.176;4.452;2023-05-07T10:20:07;9.73;;;5.32;;
24685;SDS011;12804;51.176;4.452;2023-05-07T10:22:38;7.38;;;5.15;;
24685;SDS011;12804;51.176;4.452;2023-05-07T10:27:49;11.82;;;6.10;;
24685;SDS011;12804;51.176;4.452;2023-05-07T10:30:34;8.77;;;5.95;;
24685;SDS011;12804;51.176;4.452;2023-05-07T10:33:11;9.20;;;5.43;;
24685;SDS011;12804;51.176;4.452;2023-05-07T10:35:43;7.15;;;4.97;;
24685;SDS011;12804;51.176;4.452;2023-05-07T10:38:12;5.93;;;4.22;;
24685;SDS011;12804;51.176;4.452;2023-05-07T10:40:40;6.47;;;4.70;;
24685;SDS011;12804;51.176;4.452;2023-05-07T10:43:08;8.57;;;5.32;;
24685;SDS011;12804;51.176;4.452;2023-05-07T10:45:40;6.55;;;3.95;;
24685;SDS011;12804;51.176;4.452;2023-05-07T10:48:07;7.00;;;4.28;;
24685;SDS011;12804;51.176;4.452;2023-05-07T10:50:42;8.32;;;4.70;;
24685;SDS011;12804;51.176;4.452;2023-05-07T10:56:24;5.28;;;4.22;;
24685;SDS011;12804;51.176;4.452;2023-05-07T10:58:59;5.53;;;3.90;;
24685;SDS011;12804;51.176;4.452;2023-05-07T11:02:22;5.28;;;4.45;;
24685;SDS011;12804;51.176;4.452;2023-05-07T11:05:18;7.15;;;4.18;;
24685;SDS011;12804;51.176;4.452;2023-05-07T11:07:55;6.10;;;4.32;;
24685;SDS011;12804;51.176;4.452;2023-05-07T11:10:56;9.35;;;6.50;;
24685;SDS011;12804;51.176;4.452;2023-05-07T11:13:44;5.72;;;3.47;;
24685;SDS011;12804;51.176;4.452;2023-05-07T11:16:31;7.03;;;3.40;;
24685;SDS011;12804;51.176;4.452;2023-05-07T11:19:09;5.53;;;3.60;;
24685;SDS011;12804;51.176;4.452;2023-05-07T11:21:43;5.38;;;3.75;;
24685;SDS011;12804;51.176;4.452;2023-05-07T11:24:29;6.75;;;4.72;;
24685;SDS011;12804;51.176;4.452;2023-05-07T11:27:07;8.73;;;4.30;;
24685;SDS011;12804;51.176;4.452;2023-05-07T11:29:34;7.40;;;4.47;;
24685;SDS011;12804;51.176;4.452;2023-05-07T11:32:07;7.97;;;3.65;;
24685;SDS011;12804;51.176;4.452;2023-05-07T11:34:39;6.35;;;3.30;;
24685;SDS011;12804;51.176;4.452;2023-05-07T11:37:05;8.55;;;3.70;;
24685;SDS011;12804;51.176;4.452;2023-05-07T11:40:05;7.10;;;4.63;;
24685;SDS011;12804;51.176;4.452;2023-05-07T11:42:36;6.68;;;2.65;;
24685;SDS011;12804;51.176;4.452;2023-05-07T11:45:04;5.13;;;2.70;;
24685;SDS011;12804;51.176;4.452;2023-05-07T11:47:32;3.95;;;2.40;;
24685;SDS011;12804;51.176;4.452;2023-05-07T11:50:02;4.45;;;2.13;;
24685;SDS011;12804;51.176;4.452;2023-05-07T11:52:30;2.75;;;1.75;;
24685;SDS011;12804;51.176;4.452;2023-05-07T11:54:56;4.07;;;2.20;;
24685;SDS011;12804;51.176;4.452;2023-05-07T11:57:24;6.25;;;2.38;;
24685;SDS011;12804;51.176;4.452;2023-05-07T11:59:53;4.50;;;2.25;;
24685;SDS011;12804;51.176;4.452;2023-05-07T12:02:23;5.70;;;2.30;;
24685;SDS011;12804;51.176;4.452;2023-05-07T12:04:53;3.58;;;1.80;;
24685;SDS011;12804;51.176;4.452;2023-05-07T12:07:19;4.95;;;2.40;;
24685;SDS011;12804;51.176;4.452;2023-05-07T12:09:45;4.03;;;2.00;;
24685;SDS011;12804;51.176;4.452;2023-05-07T12:12:12;5.88;;;2.45;;
24685;SDS011;12804;51.176;4.452;2023-05-07T12:14:43;5.85;;;2.55;;
24685;SDS011;12804;51.176;4.452;2023-05-07T12:17:11;3.65;;;2.50;;
24685;SDS011;12804;51.176;4.452;2023-05-07T12:19:38;7.13;;;2.80;;
24685;SDS011;12804;51.176;4.452;2023-05-07T12:22:09;4.88;;;2.80;;
24685;SDS011;12804;51.176;4.452;2023-05-07T12:24:48;4.95;;;2.85;;
24685;SDS011;12804;51.176;4.452;2023-05-07T12:27:15;5.82;;;2.55;;
24685;SDS011;12804;51.176;4.452;2023-05-07T12:29:46;6.55;;;3.65;;
24685;SDS011;12804;51.176;4.452;2023-05-07T12:32:16;3.70;;;2.70;;
24685;SDS011;12804;51.176;4.452;2023-05-07T12:34:43;4.43;;;2.65;;
24685;SDS011;12804;51.176;4.452;2023-05-07T12:37:10;7.15;;;2.78;;
24685;SDS011;12804;51.176;4.452;2023-05-07T12:39:36;5.72;;;2.80;;
24685;SDS011;12804;51.176;4.452;2023-05-07T12:42:02;3.92;;;2.42;;
24685;SDS011;12804;51.176;4.452;2023-05-07T12:44:32;5.72;;;3.30;;
24685;SDS011;12804;51.176;4.452;2023-05-07T12:47:02;3.72;;;3.05;;
24685;SDS011;12804;51.176;4.452;2023-05-07T12:49:28;5.07;;;2.55;;
24685;SDS011;12804;51.176;4.452;2023-05-07T12:51:54;6.43;;;3.00;;
24685;SDS011;12804;51.176;4.452;2023-05-07T12:54:30;4.03;;;2.45;;
24685;SDS011;12804;51.176;4.452;2023-05-07T12:57:14;4.22;;;2.50;;
24685;SDS011;12804;51.176;4.452;2023-05-07T12:59:45;6.55;;;3.05;;
24685;SDS011;12804;51.176;4.452;2023-05-07T13:02:11;4.50;;;2.47;;
24685;SDS011;12804;51.176;4.452;2023-05-07T13:04:39;8.68;;;2.70;;
24685;SDS011;12804;51.176;4.452;2023-05-07T13:07:05;4.47;;;2.45;;
24685;SDS011;12804;51.176;4.452;2023-05-07T13:09:31;5.03;;;3.00;;
24685;SDS011;12804;51.176;4.452;2023-05-07T13:11:57;5.25;;;2.25;;
24685;SDS011;12804;51.176;4.452;2023-05-07T13:14:26;4.65;;;2.25;;
24685;SDS011;12804;51.176;4.452;2023-05-07T13:16:52;4.78;;;1.95;;
24685;SDS011;12804;51.176;4.452;2023-05-07T13:19:17;5.75;;;2.50;;
24685;SDS011;12804;51.176;4.452;2023-05-07T13:21:43;5.00;;;2.10;;
24685;SDS011;12804;51.176;4.452;2023-05-07T13:24:09;4.22;;;1.77;;
24685;SDS011;12804;51.176;4.452;2023-05-07T13:26:35;4.82;;;2.15;;
24685;SDS011;12804;51.176;4.452;2023-05-07T13:29:01;4.07;;;2.13;;
24685;SDS011;12804;51.176;4.452;2023-05-07T13:31:27;2.88;;;2.00;;
24685;SDS011;12804;51.176;4.452;2023-05-07T13:33:53;4.90;;;2.17;;
24685;SDS011;12804;51.176;4.452;2023-05-07T13:36:18;4.70;;;1.75;;
24685;SDS011;12804;51.176;4.452;2023-05-07T13:38:44;3.15;;;1.83;;
24685;SDS011;12804;51.176;4.452;2023-05-07T13:41:11;4.13;;;2.00;;
24685;SDS011;12804;51.176;4.452;2023-05-07T13:43:38;3.42;;;1.85;;
24685;SDS011;12804;51.176;4.452;2023-05-07T13:46:04;3.72;;;1.38;;
24685;SDS011;12804;51.176;4.452;2023-05-07T13:48:29;1.92;;;1.20;;
24685;SDS011;12804;51.176;4.452;2023-05-07T13:50:55;3.33;;;1.58;;
24685;SDS011;12804;51.176;4.452;2023-05-07T13:53:21;2.90;;;1.60;;
24685;SDS011;12804;51.176;4.452;2023-05-07T13:55:47;5.63;;;2.03;;
24685;SDS011;12804;51.176;4.452;2023-05-07T13:58:13;2.85;;;1.48;;
24685;SDS011;12804;51.176;4.452;2023-05-07T14:00:39;3.10;;;1.50;;
24685;SDS011;12804;51.176;4.452;2023-05-07T14:03:05;3.65;;;1.40;;
24685;SDS011;12804;51.176;4.452;2023-05-07T14:05:30;3.72;;;1.80;;
24685;SDS011;12804;51.176;4.452;2023-05-07T14:07:56;3.85;;;1.65;;
24685;SDS011;12804;51.176;4.452;2023-05-07T14:10:23;2.38;;;1.38;;
24685;SDS011;12804;51.176;4.452;2023-05-07T14:12:49;4.47;;;1.50;;
24685;SDS011;12804;51.176;4.452;2023-05-07T14:15:15;3.90;;;1.70;;
24685;SDS011;12804;51.176;4.452;2023-05-07T14:17:42;2.28;;;1.38;;
24685;SDS011;12804;51.176;4.452;2023-05-07T14:20:08;3.00;;;1.20;;
24685;SDS011;12804;51.176;4.452;2023-05-07T14:22:35;2.05;;;1.20;;
24685;SDS011;12804;51.176;4.452;2023-05-07T14:25:02;5.32;;;1.63;;
24685;SDS011;12804;51.176;4.452;2023-05-07T14:27:28;5.53;;;1.70;;
24685;SDS011;12804;51.176;4.452;2023-05-07T14:29:54;7.32;;;1.60;;
24685;SDS011;12804;51.176;4.452;2023-05-07T14:32:20;3.38;;;1.55;;
24685;SDS011;12804;51.176;4.452;2023-05-07T14:34:46;4.05;;;1.70;;
24685;SDS011;12804;51.176;4.452;2023-05-07T14:37:12;2.33;;;1.20;;
24685;SDS011;12804;51.176;4.452;2023-05-07T14:39:38;3.85;;;1.70;;
24685;SDS011;12804;51.176;4.452;2023-05-07T14:42:04;2.67;;;1.20;;
24685;SDS011;12804;51.176;4.452;2023-05-07T14:44:30;3.22;;;1.40;;
24685;SDS011;12804;51.176;4.452;2023-05-07T14:46:56;4.18;;;1.52;;